Ship Status Report: callsign SY5390

sailwx.info

Track history (hours):
 
Tides and Currents Weather Stations Pressure Air Temp Water Temp Dewpoint Dewpoint Depression Visibility Wind Speed Wind Dir Waves Ship Positions

Callsign SY5390 (name unknown)

Last reported at 2018-Jun-18 16:00 UTC. Time now 2018-Jun-25 14:09 UTC.
Position N 37°57' E 023°39'.

Date/timePositionNaut miles runAvg speedWind from/ knotsBaromVisibWave heightAir tempDewpointWater temp
2018-Jun-18 16:00N 37°57' E 023°39'0 0.0
2018-Jun-18 15:30N 37°57' E 023°39'0 0.0
2018-Jun-18 15:00N 37°57' E 023°39'0 0.0
2018-Jun-18 14:30N 37°57' E 023°39'3 6.7
2018-Jun-18 14:01N 37°54' E 023°36'917.7
2018-Jun-18 13:31N 37°45' E 023°34'1324.3
2018-Jun-18 12:59N 37°34' E 023°27'4 8.3
2018-Jun-18 12:28N 37°30' E 023°28'810.5
2018-Jun-18 11:40N 37°21' E 023°27'3 1.6
2018-Jun-18 09:37N 37°20' E 023°23'410.1
2018-Jun-18 09:10N 37°22' E 023°28'719.3
2018-Jun-18 08:50N 37°28' E 023°31'410.0
2018-Jun-18 08:25N 37°30' E 023°27'818.4
2018-Jun-18 08:00N 37°37' E 023°29'1223.9
2018-Jun-18 07:31N 37°48' E 023°35'917.1
2018-Jun-18 07:00N 37°57' E 023°39'0 0.3
2018-Jun-18 06:30N 37°57' E 023°38'1020.5
2018-Jun-18 06:01N 37°47' E 023°35'1224.4
2018-Jun-18 05:30N 37°36' E 023°28'610.4
2018-Jun-18 04:56N 37°30' E 023°27'810.1
2018-Jun-18 04:07N 37°22' E 023°26'3 0.4
2018-Jun-17 20:52N 37°20' E 023°23'1318.5
2018-Jun-17 20:10N 37°30' E 023°33'527.4
2018-Jun-17 20:01N 37°34' E 023°33'1427.4
2018-Jun-17 19:30N 37°48' E 023°36'917.8
2018-Jun-17 19:00N 37°57' E 023°39'3 5.3
2018-Jun-17 18:31N 37°55' E 023°36'1224.2
2018-Jun-17 18:01N 37°43' E 023°35'2123.4
2018-Jun-17 17:06N 37°22' E 023°29'3 8.0
2018-Jun-17 16:42N 37°21' E 023°25'3 1.5
2018-Jun-17 14:48N 37°24' E 023°25'1223.3
2018-Jun-17 14:17N 37°33' E 023°34'827.2
2018-Jun-17 14:01N 37°41' E 023°35'1326.9
2018-Jun-17 13:31N 37°54' E 023°37'3 5.9
2018-Jun-17 13:00N 37°57' E 023°39'815.7
2018-Jun-17 12:31N 37°49' E 023°36'2919.9
2018-Jun-17 11:04N 37°21' E 023°28'222.0
2018-Jun-17 11:00N 37°21' E 023°26'2 1.0
2018-Jun-17 09:01N 37°20' E 023°24'027.1
2018-Jun-17 09:00N 37°20' E 023°24'1516.3
2018-Jun-17 08:05N 37°33' E 023°34'225.3
2018-Jun-17 08:00N 37°35' E 023°34'1325.1
2018-Jun-17 07:31N 37°47' E 023°36'919.0
2018-Jun-17 07:00N 37°57' E 023°39'0 0.0
2018-Jun-17 06:30N 37°57' E 023°39'815.5
2018-Jun-17 06:01N 37°49' E 023°35'1325.6
2018-Jun-17 05:30N 37°37' E 023°30'813.2
2018-Jun-17 04:56N 37°30' E 023°27'910.5
2018-Jun-17 04:07N 37°21' E 023°26'1 0.1
2018-Jun-16 18:34N 37°22' E 023°24'811.4
2018-Jun-16 17:50N 37°29' E 023°29'3 8.0
2018-Jun-16 17:29N 37°30' E 023°26'1224.4
2018-Jun-16 17:01N 37°41' E 023°32'1326.1
2018-Jun-16 16:31N 37°54' E 023°36'4 7.0
2018-Jun-16 16:01N 37°57' E 023°39'0 0.0
2018-Jun-16 15:31N 37°57' E 023°39'0 0.0
2018-Jun-16 15:00N 37°57' E 023°39'0 0.0
2018-Jun-16 14:31N 37°57' E 023°39'0 0.0
2018-Jun-16 14:01N 37°57' E 023°39'612.5
2018-Jun-16 13:30N 37°51' E 023°35'1326.5
2018-Jun-16 13:00N 37°38' E 023°30'915.2
2018-Jun-16 12:26N 37°30' E 023°27'715.3
2018-Jun-16 11:57N 37°23' E 023°29'6 1.9
2018-Jun-16 08:46N 37°29' E 023°31'3 9.1
2018-Jun-16 08:24N 37°30' E 023°27'718.3
2018-Jun-16 08:00N 37°37' E 023°28'1224.2
2018-Jun-16 07:31N 37°48' E 023°35'918.3
2018-Jun-16 07:00N 37°57' E 023°39'0 0.0
2018-Jun-16 06:29N 37°57' E 023°39'714.5
2018-Jun-16 06:01N 37°50' E 023°36'1325.5
2018-Jun-16 05:30N 37°38' E 023°30'812.9
2018-Jun-16 04:50N 37°30' E 023°28'811.0
2018-Jun-16 04:06N 37°22' E 023°25'2 0.3
2018-Jun-15 20:51N 37°20' E 023°23'513.4
2018-Jun-15 20:30N 37°22' E 023°29'813.1
2018-Jun-15 19:52N 37°30' E 023°27'820.4
2018-Jun-15 19:29N 37°38' E 023°26'1122.2
2018-Jun-15 19:01N 37°48' E 023°29'1122.1
2018-Jun-15 18:31N 37°56' E 023°38'0 0.1
2018-Jun-15 18:00N 37°56' E 023°38'1020.7
2018-Jun-15 17:31N 37°48' E 023°30'1122.4
2018-Jun-15 17:00N 37°38' E 023°25'815.0
2018-Jun-15 16:29N 37°30' E 023°27'814.5
2018-Jun-15 15:56N 37°22' E 023°29'6 9.8
2018-Jun-15 15:17N 37°28' E 023°31'410.0
2018-Jun-15 14:51N 37°30' E 023°27'720.3
2018-Jun-15 14:30N 37°37' E 023°25'1122.3
2018-Jun-15 14:01N 37°48' E 023°28'1122.1
2018-Jun-15 13:30N 37°56' E 023°37'1 1.4
2018-Jun-15 13:00N 37°57' E 023°38'1223.7
2018-Jun-15 12:31N 37°45' E 023°35'1427.3
2018-Jun-15 12:01N 37°31' E 023°34'13 6.0
2018-Jun-15 09:45N 37°20' E 023°24'3 8.4
2018-Jun-15 09:21N 37°21' E 023°28'720.1
2018-Jun-15 09:01N 37°27' E 023°33'611.5
2018-Jun-15 08:30N 37°30' E 023°27'1019.7
2018-Jun-15 08:00N 37°40' E 023°30'1122.5
2018-Jun-15 07:31N 37°50' E 023°35'714.2
2018-Jun-15 07:00N 37°57' E 023°39'0 0.0
2018-Jun-15 06:30N 37°57' E 023°39'612.2
2018-Jun-15 06:00N 37°51' E 023°36'1326.2
2018-Jun-15 05:31N 37°39' E 023°30'915.0
2018-Jun-15 04:54N 37°30' E 023°27'8 0.8
2018-Jun-14 18:52N 37°22' E 023°25'812.4
2018-Jun-14 18:13N 37°28' E 023°31'416.8
2018-Jun-14 17:59N 37°30' E 023°27'714.0
2018-Jun-14 17:30N 37°36' E 023°29'1325.5
2018-Jun-14 17:01N 37°48' E 023°35'917.6
2018-Jun-14 16:31N 37°57' E 023°39'0 0.0
2018-Jun-14 16:00N 37°57' E 023°39'0 0.0
2018-Jun-14 15:30N 37°57' E 023°39'0 0.0
2018-Jun-14 15:00N 37°57' E 023°39'0 0.0
2018-Jun-14 14:30N 37°57' E 023°39'0 0.1
2018-Jun-14 14:00N 37°57' E 023°39'1019.1
2018-Jun-14 13:31N 37°48' E 023°35'1224.1
2018-Jun-14 13:00N 37°36' E 023°29'711.3
2018-Jun-14 12:24N 37°30' E 023°28'616.6
2018-Jun-14 12:00N 37°23' E 023°30'7 2.7
2018-Jun-14 09:34N 37°20' E 023°23'225.5
2018-Jun-14 09:28N 37°21' E 023°26'510.8
2018-Jun-14 09:01N 37°24' E 023°31'1212.6
2018-Jun-14 08:03N 37°36' E 023°29'325.0
2018-Jun-14 07:56N 37°39' E 023°30'1024.5
2018-Jun-14 07:30N 37°48' E 023°35'9 7.3
2018-Jun-14 06:20N 37°57' E 023°38'619.7
2018-Jun-14 06:01N 37°51' E 023°34'19 1.6
2018-Jun-13 17:39N 37°33' E 023°26'425.5
2018-Jun-13 17:30N 37°36' E 023°28'1325.4
2018-Jun-13 17:01N 37°48' E 023°35'10 4.1
2018-Jun-13 14:42N 37°57' E 023°39'0 0.0
2018-Jun-13 14:30N 37°57' E 023°39'0 0.0
2018-Jun-13 14:00N 37°57' E 023°39'815.6
2018-Jun-13 13:31N 37°49' E 023°35'1325.5
2018-Jun-13 13:00N 37°37' E 023°29'814.4
2018-Jun-13 12:28N 37°30' E 023°27'715.3
2018-Jun-13 12:00N 37°23' E 023°30'5 1.9
2018-Jun-13 09:22N 37°21' E 023°25'913.0
2018-Jun-13 08:40N 37°28' E 023°30'3 9.1
2018-Jun-13 08:18N 37°30' E 023°27'619.2
2018-Jun-13 07:59N 37°36' E 023°29'1225.9
2018-Jun-13 07:31N 37°47' E 023°35'1019.6
2018-Jun-13 07:00N 37°57' E 023°39'0 0.0
2018-Jun-13 06:30N 37°57' E 023°39'915.0
2018-Jun-13 05:53N 37°48' E 023°35'1026.5
2018-Jun-13 05:30N 37°38' E 023°30'913.8
2018-Jun-13 04:51N 37°30' E 023°28'717.7
2018-Jun-13 04:27N 37°23' E 023°29'4 0.4
2018-Jun-12 18:54N 37°22' E 023°24'511.6
2018-Jun-12 18:28N 37°23' E 023°30'711.7
2018-Jun-12 17:51N 37°30' E 023°27'718.9
2018-Jun-12 17:30N 37°37' E 023°28'1225.0
2018-Jun-12 17:01N 37°48' E 023°35'918.8
2018-Jun-12 16:30N 37°57' E 023°39'0 0.0
2018-Jun-12 16:00N 37°57' E 023°39'0 0.0
2018-Jun-12 15:30N 37°57' E 023°39'0 0.0
2018-Jun-12 15:00N 37°57' E 023°39'0 0.0
2018-Jun-12 14:30N 37°57' E 023°39'0 0.0
2018-Jun-12 14:00N 37°57' E 023°39'0 0.0
2018-Jun-12 13:30N 37°57' E 023°39'0 0.0
2018-Jun-12 13:00N 37°57' E 023°39'0 0.0
2018-Jun-12 12:30N 37°57' E 023°39'0 0.0
2018-Jun-12 12:00N 37°57' E 023°39'0 0.0
2018-Jun-12 11:30N 37°57' E 023°39'0 0.0
2018-Jun-12 11:00N 37°57' E 023°39'0 0.0
2018-Jun-12 10:30N 37°57' E 023°39'0 0.0
2018-Jun-12 10:00N 37°57' E 023°39'0 0.0
2018-Jun-12 09:29N 37°57' E 023°39'0 0.0
2018-Jun-12 09:00N 37°57' E 023°39'0 0.0
2018-Jun-12 08:30N 37°57' E 023°39'0 0.0
2018-Jun-12 08:00N 37°57' E 023°39'0 0.0
2018-Jun-12 07:30N 37°57' E 023°39'0 0.0
2018-Jun-12 07:00N 37°57' E 023°39'0 0.0
2018-Jun-12 06:31N 37°57' E 023°39'917.7
2018-Jun-12 06:01N 37°48' E 023°35'1223.9
2018-Jun-12 05:30N 37°37' E 023°30'714.5
2018-Jun-12 05:00N 37°30' E 023°27'714.4
2018-Jun-12 04:30N 37°23' E 023°30'5 0.5
2018-Jun-11 18:09N 37°28' E 023°31'323.4
2018-Jun-11 18:00N 37°30' E 023°28'611.3
2018-Jun-11 17:30N 37°35' E 023°28'1326.7
2018-Jun-11 17:01N 37°47' E 023°35'1019.9
2018-Jun-11 16:30N 37°57' E 023°39'0 0.0
2018-Jun-11 16:01N 37°57' E 023°39'0 0.0
2018-Jun-11 15:30N 37°57' E 023°39'0 0.0
2018-Jun-11 15:00N 37°57' E 023°39'0 0.0
2018-Jun-11 14:30N 37°57' E 023°39'2 3.1
2018-Jun-11 14:01N 37°56' E 023°37'1224.0
2018-Jun-11 13:31N 37°44' E 023°34'1223.9
2018-Jun-11 13:00N 37°33' E 023°26'5 9.8
2018-Jun-11 12:30N 37°29' E 023°30'9 9.6
2018-Jun-11 11:35N 37°21' E 023°26'225.5
2018-Jun-11 11:29N 37°20' E 023°23'1 0.4
2018-Jun-11 09:25N 37°20' E 023°24'1013.2
2018-Jun-11 08:42N 37°29' E 023°30'3 8.9
2018-Jun-11 08:19N 37°30' E 023°27'619.4
2018-Jun-11 08:00N 37°36' E 023°28'1325.1
2018-Jun-11 07:31N 37°47' E 023°35'1019.8
2018-Jun-11 07:01N 37°57' E 023°39'0 0.0
2018-Jun-11 06:30N 37°57' E 023°39'816.0
2018-Jun-11 06:01N 37°49' E 023°35'1224.2
2018-Jun-11 05:31N 37°38' E 023°30'812.8
2018-Jun-11 04:51N 37°30' E 023°28'817.8
2018-Jun-11 04:25N 37°22' E 023°28'3 0.4
2018-Jun-10 20:50N 37°21' E 023°25'1017.2
2018-Jun-10 20:14N 37°28' E 023°33'627.7
2018-Jun-10 20:00N 37°35' E 023°34'1427.4
2018-Jun-10 19:31N 37°48' E 023°36'917.5
2018-Jun-10 19:01N 37°57' E 023°39'4 7.9
2018-Jun-10 18:31N 37°53' E 023°36'1122.6
2018-Jun-10 18:00N 37°42' E 023°35'2216.4
2018-Jun-10 16:40N 37°21' E 023°26'3 1.9
2018-Jun-10 15:00N 37°23' E 023°23'1223.1
2018-Jun-10 14:29N 37°31' E 023°33'2626.1
2018-Jun-10 13:30N 37°56' E 023°37'0 0.0
2018-Jun-10 13:00N 37°56' E 023°37'1122.9
2018-Jun-10 12:31N 37°45' E 023°35'2423.4
2018-Jun-10 11:29N 37°22' E 023°28'3 1.5
2018-Jun-10 09:13N 37°21' E 023°25'3 7.9
2018-Jun-10 08:48N 37°22' E 023°28'1123.0
2018-Jun-10 08:20N 37°32' E 023°34'823.7
2018-Jun-10 08:01N 37°39' E 023°34'1223.6
2018-Jun-10 07:30N 37°51' E 023°34'713.5
2018-Jun-10 07:00N 37°57' E 023°39'2 3.1
2018-Jun-10 06:31N 37°56' E 023°37'918.9
2018-Jun-10 06:01N 37°47' E 023°35'1223.5
2018-Jun-10 05:30N 37°36' E 023°28'611.4
2018-Jun-10 04:56N 37°30' E 023°27'815.7
2018-Jun-10 04:25N 37°22' E 023°28'4 0.5
2018-Jun-09 18:42N 37°22' E 023°23'912.0
2018-Jun-09 17:57N 37°29' E 023°31'511.1
2018-Jun-09 17:31N 37°31' E 023°25'1325.0
2018-Jun-09 17:01N 37°42' E 023°33'1224.8
2018-Jun-09 16:31N 37°54' E 023°36'3 6.1
2018-Jun-09 16:01N 37°57' E 023°39'0 0.0
2018-Jun-09 15:30N 37°57' E 023°39'0 0.0
2018-Jun-09 14:31N 37°57' E 023°39'0 0.0
2018-Jun-09 14:00N 37°57' E 023°39'713.4
2018-Jun-09 13:31N 37°50' E 023°36'1426.1
2018-Jun-09 12:58N 37°37' E 023°29'812.3
2018-Jun-09 12:21N 37°30' E 023°28'618.1
2018-Jun-09 12:00N 37°24' E 023°30'6 2.3
2018-Jun-09 09:29N 37°21' E 023°25'814.1
2018-Jun-09 08:54N 37°26' E 023°33'612.0
2018-Jun-09 08:24N 37°30' E 023°27'717.8
2018-Jun-09 08:00N 37°37' E 023°29'1724.0
2018-Jun-09 07:18N 37°53' E 023°36'414.5
2018-Jun-09 07:00N 37°57' E 023°39'0 0.0
2018-Jun-09 06:30N 37°57' E 023°39'815.1
2018-Jun-09 06:00N 37°49' E 023°35'1425.1
2018-Jun-09 05:27N 37°37' E 023°29'713.6
2018-Jun-09 04:56N 37°30' E 023°27'715.5
2018-Jun-09 04:29N 37°23' E 023°30'5 0.6
2018-Jun-08 20:21N 37°21' E 023°25'411.3
2018-Jun-08 20:00N 37°22' E 023°29'815.2
2018-Jun-08 19:30N 37°30' E 023°27'612.4
2018-Jun-08 19:00N 37°36' E 023°29'1325.7
2018-Jun-08 18:31N 37°48' E 023°35'918.9
2018-Jun-08 18:00N 37°57' E 023°39'0 0.3
2018-Jun-08 17:30N 37°57' E 023°38'1121.7
2018-Jun-08 17:01N 37°46' E 023°35'1326.3
2018-Jun-08 16:30N 37°34' E 023°27'510.6
2018-Jun-08 16:00N 37°29' E 023°29'  
Track history (hours):
 
Tides and Currents Weather Stations Pressure Air Temp Water Temp Dewpoint Dewpoint Depression Visibility Wind Speed Wind Dir Waves Ship Positions

Callsign SY5390 (name unknown)

Last reported at 2018-Jun-18 16:00 UTC. Time now 2018-Jun-25 14:09 UTC.
Position N 37°57' E 023°39'.

Date/timePositionNaut miles runAvg speedWind from/ knotsBaromVisibWave heightAir tempDewpointWater temp
2018-Jun-18 16:00N 37°57' E 023°39'0 0.0
2018-Jun-18 15:30N 37°57' E 023°39'0 0.0
2018-Jun-18 15:00N 37°57' E 023°39'0 0.0
2018-Jun-18 14:30N 37°57' E 023°39'3 6.7
2018-Jun-18 14:01N 37°54' E 023°36'917.7
2018-Jun-18 13:31N 37°45' E 023°34'1324.3
2018-Jun-18 12:59N 37°34' E 023°27'4 8.3
2018-Jun-18 12:28N 37°30' E 023°28'810.5
2018-Jun-18 11:40N 37°21' E 023°27'3 1.6
2018-Jun-18 09:37N 37°20' E 023°23'410.1
2018-Jun-18 09:10N 37°22' E 023°28'719.3
2018-Jun-18 08:50N 37°28' E 023°31'410.0
2018-Jun-18 08:25N 37°30' E 023°27'818.4
2018-Jun-18 08:00N 37°37' E 023°29'1223.9
2018-Jun-18 07:31N 37°48' E 023°35'917.1
2018-Jun-18 07:00N 37°57' E 023°39'0 0.3
2018-Jun-18 06:30N 37°57' E 023°38'1020.5
2018-Jun-18 06:01N 37°47' E 023°35'1224.4
2018-Jun-18 05:30N 37°36' E 023°28'610.4
2018-Jun-18 04:56N 37°30' E 023°27'810.1
2018-Jun-18 04:07N 37°22' E 023°26'3 0.4
2018-Jun-17 20:52N 37°20' E 023°23'1318.5
2018-Jun-17 20:10N 37°30' E 023°33'527.4
2018-Jun-17 20:01N 37°34' E 023°33'1427.4
2018-Jun-17 19:30N 37°48' E 023°36'917.8
2018-Jun-17 19:00N 37°57' E 023°39'3 5.3
2018-Jun-17 18:31N 37°55' E 023°36'1224.2
2018-Jun-17 18:01N 37°43' E 023°35'2123.4
2018-Jun-17 17:06N 37°22' E 023°29'3 8.0
2018-Jun-17 16:42N 37°21' E 023°25'3 1.5
2018-Jun-17 14:48N 37°24' E 023°25'1223.3
2018-Jun-17 14:17N 37°33' E 023°34'827.2
2018-Jun-17 14:01N 37°41' E 023°35'1326.9
2018-Jun-17 13:31N 37°54' E 023°37'3 5.9
2018-Jun-17 13:00N 37°57' E 023°39'815.7
2018-Jun-17 12:31N 37°49' E 023°36'2919.9
2018-Jun-17 11:04N 37°21' E 023°28'222.0
2018-Jun-17 11:00N 37°21' E 023°26'2 1.0
2018-Jun-17 09:01N 37°20' E 023°24'027.1
2018-Jun-17 09:00N 37°20' E 023°24'1516.3
2018-Jun-17 08:05N 37°33' E 023°34'225.3
2018-Jun-17 08:00N 37°35' E 023°34'1325.1
2018-Jun-17 07:31N 37°47' E 023°36'919.0
2018-Jun-17 07:00N 37°57' E 023°39'0 0.0
2018-Jun-17 06:30N 37°57' E 023°39'815.5
2018-Jun-17 06:01N 37°49' E 023°35'1325.6
2018-Jun-17 05:30N 37°37' E 023°30'813.2
2018-Jun-17 04:56N 37°30' E 023°27'910.5
2018-Jun-17 04:07N 37°21' E 023°26'1 0.1
2018-Jun-16 18:34N 37°22' E 023°24'811.4
2018-Jun-16 17:50N 37°29' E 023°29'3 8.0
2018-Jun-16 17:29N 37°30' E 023°26'1224.4
2018-Jun-16 17:01N 37°41' E 023°32'1326.1
2018-Jun-16 16:31N 37°54' E 023°36'4 7.0
2018-Jun-16 16:01N 37°57' E 023°39'0 0.0
2018-Jun-16 15:31N 37°57' E 023°39'0 0.0
2018-Jun-16 15:00N 37°57' E 023°39'0 0.0
2018-Jun-16 14:31N 37°57' E 023°39'0 0.0
2018-Jun-16 14:01N 37°57' E 023°39'612.5
2018-Jun-16 13:30N 37°51' E 023°35'1326.5
2018-Jun-16 13:00N 37°38' E 023°30'915.2
2018-Jun-16 12:26N 37°30' E 023°27'715.3
2018-Jun-16 11:57N 37°23' E 023°29'6 1.9
2018-Jun-16 08:46N 37°29' E 023°31'3 9.1
2018-Jun-16 08:24N 37°30' E 023°27'718.3
2018-Jun-16 08:00N 37°37' E 023°28'1224.2
2018-Jun-16 07:31N 37°48' E 023°35'918.3
2018-Jun-16 07:00N 37°57' E 023°39'0 0.0
2018-Jun-16 06:29N 37°57' E 023°39'714.5
2018-Jun-16 06:01N 37°50' E 023°36'1325.5
2018-Jun-16 05:30N 37°38' E 023°30'812.9
2018-Jun-16 04:50N 37°30' E 023°28'811.0
2018-Jun-16 04:06N 37°22' E 023°25'2 0.3
2018-Jun-15 20:51N 37°20' E 023°23'513.4
2018-Jun-15 20:30N 37°22' E 023°29'813.1
2018-Jun-15 19:52N 37°30' E 023°27'820.4
2018-Jun-15 19:29N 37°38' E 023°26'1122.2
2018-Jun-15 19:01N 37°48' E 023°29'1122.1
2018-Jun-15 18:31N 37°56' E 023°38'0 0.1
2018-Jun-15 18:00N 37°56' E 023°38'1020.7
2018-Jun-15 17:31N 37°48' E 023°30'1122.4
2018-Jun-15 17:00N 37°38' E 023°25'815.0
2018-Jun-15 16:29N 37°30' E 023°27'814.5
2018-Jun-15 15:56N 37°22' E 023°29'6 9.8
2018-Jun-15 15:17N 37°28' E 023°31'410.0
2018-Jun-15 14:51N 37°30' E 023°27'720.3
2018-Jun-15 14:30N 37°37' E 023°25'1122.3
2018-Jun-15 14:01N 37°48' E 023°28'1122.1
2018-Jun-15 13:30N 37°56' E 023°37'1 1.4
2018-Jun-15 13:00N 37°57' E 023°38'1223.7
2018-Jun-15 12:31N 37°45' E 023°35'1427.3
2018-Jun-15 12:01N 37°31' E 023°34'13 6.0
2018-Jun-15 09:45N 37°20' E 023°24'3 8.4
2018-Jun-15 09:21N 37°21' E 023°28'720.1
2018-Jun-15 09:01N 37°27' E 023°33'611.5
2018-Jun-15 08:30N 37°30' E 023°27'1019.7
2018-Jun-15 08:00N 37°40' E 023°30'1122.5
2018-Jun-15 07:31N 37°50' E 023°35'714.2
2018-Jun-15 07:00N 37°57' E 023°39'0 0.0
2018-Jun-15 06:30N 37°57' E 023°39'612.2
2018-Jun-15 06:00N 37°51' E 023°36'1326.2
2018-Jun-15 05:31N 37°39' E 023°30'915.0
2018-Jun-15 04:54N 37°30' E 023°27'8 0.8
2018-Jun-14 18:52N 37°22' E 023°25'812.4
2018-Jun-14 18:13N 37°28' E 023°31'416.8
2018-Jun-14 17:59N 37°30' E 023°27'714.0
2018-Jun-14 17:30N 37°36' E 023°29'1325.5
2018-Jun-14 17:01N 37°48' E 023°35'917.6
2018-Jun-14 16:31N 37°57' E 023°39'0 0.0
2018-Jun-14 16:00N 37°57' E 023°39'0 0.0
2018-Jun-14 15:30N 37°57' E 023°39'0 0.0
2018-Jun-14 15:00N 37°57' E 023°39'0 0.0
2018-Jun-14 14:30N 37°57' E 023°39'0 0.1
2018-Jun-14 14:00N 37°57' E 023°39'1019.1
2018-Jun-14 13:31N 37°48' E 023°35'1224.1
2018-Jun-14 13:00N 37°36' E 023°29'711.3
2018-Jun-14 12:24N 37°30' E 023°28'616.6
2018-Jun-14 12:00N 37°23' E 023°30'7 2.7
2018-Jun-14 09:34N 37°20' E 023°23'225.5
2018-Jun-14 09:28N 37°21' E 023°26'510.8
2018-Jun-14 09:01N 37°24' E 023°31'1212.6
2018-Jun-14 08:03N 37°36' E 023°29'325.0
2018-Jun-14 07:56N 37°39' E 023°30'1024.5
2018-Jun-14 07:30N 37°48' E 023°35'9 7.3
2018-Jun-14 06:20N 37°57' E 023°38'619.7
2018-Jun-14 06:01N 37°51' E 023°34'19 1.6
2018-Jun-13 17:39N 37°33' E 023°26'425.5
2018-Jun-13 17:30N 37°36' E 023°28'1325.4
2018-Jun-13 17:01N 37°48' E 023°35'10 4.1
2018-Jun-13 14:42N 37°57' E 023°39'0 0.0
2018-Jun-13 14:30N 37°57' E 023°39'0 0.0
2018-Jun-13 14:00N 37°57' E 023°39'815.6
2018-Jun-13 13:31N 37°49' E 023°35'1325.5
2018-Jun-13 13:00N 37°37' E 023°29'814.4
2018-Jun-13 12:28N 37°30' E 023°27'715.3
2018-Jun-13 12:00N 37°23' E 023°30'5 1.9
2018-Jun-13 09:22N 37°21' E 023°25'913.0
2018-Jun-13 08:40N 37°28' E 023°30'3 9.1
2018-Jun-13 08:18N 37°30' E 023°27'619.2
2018-Jun-13 07:59N 37°36' E 023°29'1225.9
2018-Jun-13 07:31N 37°47' E 023°35'1019.6
2018-Jun-13 07:00N 37°57' E 023°39'0 0.0
2018-Jun-13 06:30N 37°57' E 023°39'915.0
2018-Jun-13 05:53N 37°48' E 023°35'1026.5
2018-Jun-13 05:30N 37°38' E 023°30'913.8
2018-Jun-13 04:51N 37°30' E 023°28'717.7
2018-Jun-13 04:27N 37°23' E 023°29'4 0.4
2018-Jun-12 18:54N 37°22' E 023°24'511.6
2018-Jun-12 18:28N 37°23' E 023°30'711.7
2018-Jun-12 17:51N 37°30' E 023°27'718.9
2018-Jun-12 17:30N 37°37' E 023°28'1225.0
2018-Jun-12 17:01N 37°48' E 023°35'918.8
2018-Jun-12 16:30N 37°57' E 023°39'0 0.0
2018-Jun-12 16:00N 37°57' E 023°39'0 0.0
2018-Jun-12 15:30N 37°57' E 023°39'0 0.0
2018-Jun-12 15:00N 37°57' E 023°39'0 0.0
2018-Jun-12 14:30N 37°57' E 023°39'0 0.0
2018-Jun-12 14:00N 37°57' E 023°39'0 0.0
2018-Jun-12 13:30N 37°57' E 023°39'0 0.0
2018-Jun-12 13:00N 37°57' E 023°39'0 0.0
2018-Jun-12 12:30N 37°57' E 023°39'0 0.0
2018-Jun-12 12:00N 37°57' E 023°39'0 0.0
2018-Jun-12 11:30N 37°57' E 023°39'0 0.0
2018-Jun-12 11:00N 37°57' E 023°39'0 0.0
2018-Jun-12 10:30N 37°57' E 023°39'0 0.0
2018-Jun-12 10:00N 37°57' E 023°39'0 0.0
2018-Jun-12 09:29N 37°57' E 023°39'0 0.0
2018-Jun-12 09:00N 37°57' E 023°39'0 0.0
2018-Jun-12 08:30N 37°57' E 023°39'0 0.0
2018-Jun-12 08:00N 37°57' E 023°39'0 0.0
2018-Jun-12 07:30N 37°57' E 023°39'0 0.0
2018-Jun-12 07:00N 37°57' E 023°39'0 0.0
2018-Jun-12 06:31N 37°57' E 023°39'917.7
2018-Jun-12 06:01N 37°48' E 023°35'1223.9
2018-Jun-12 05:30N 37°37' E 023°30'714.5
2018-Jun-12 05:00N 37°30' E 023°27'714.4
2018-Jun-12 04:30N 37°23' E 023°30'5 0.5
2018-Jun-11 18:09N 37°28' E 023°31'323.4
2018-Jun-11 18:00N 37°30' E 023°28'611.3
2018-Jun-11 17:30N 37°35' E 023°28'1326.7
2018-Jun-11 17:01N 37°47' E 023°35'1019.9
2018-Jun-11 16:30N 37°57' E 023°39'0 0.0
2018-Jun-11 16:01N 37°57' E 023°39'0 0.0
2018-Jun-11 15:30N 37°57' E 023°39'0 0.0
2018-Jun-11 15:00N 37°57' E 023°39'0 0.0
2018-Jun-11 14:30N 37°57' E 023°39'2 3.1
2018-Jun-11 14:01N 37°56' E 023°37'1224.0
2018-Jun-11 13:31N 37°44' E 023°34'1223.9
2018-Jun-11 13:00N 37°33' E 023°26'5 9.8
2018-Jun-11 12:30N 37°29' E 023°30'9 9.6
2018-Jun-11 11:35N 37°21' E 023°26'225.5
2018-Jun-11 11:29N 37°20' E 023°23'1 0.4
2018-Jun-11 09:25N 37°20' E 023°24'1013.2
2018-Jun-11 08:42N 37°29' E 023°30'3 8.9
2018-Jun-11 08:19N 37°30' E 023°27'619.4
2018-Jun-11 08:00N 37°36' E 023°28'1325.1
2018-Jun-11 07:31N 37°47' E 023°35'1019.8
2018-Jun-11 07:01N 37°57' E 023°39'0 0.0
2018-Jun-11 06:30N 37°57' E 023°39'816.0
2018-Jun-11 06:01N 37°49' E 023°35'1224.2
2018-Jun-11 05:31N 37°38' E 023°30'812.8
2018-Jun-11 04:51N 37°30' E 023°28'817.8
2018-Jun-11 04:25N 37°22' E 023°28'3 0.4
2018-Jun-10 20:50N 37°21' E 023°25'1017.2
2018-Jun-10 20:14N 37°28' E 023°33'627.7
2018-Jun-10 20:00N 37°35' E 023°34'1427.4
2018-Jun-10 19:31N 37°48' E 023°36'917.5
2018-Jun-10 19:01N 37°57' E 023°39'4 7.9
2018-Jun-10 18:31N 37°53' E 023°36'1122.6
2018-Jun-10 18:00N 37°42' E 023°35'2216.4
2018-Jun-10 16:40N 37°21' E 023°26'3 1.9
2018-Jun-10 15:00N 37°23' E 023°23'1223.1
2018-Jun-10 14:29N 37°31' E 023°33'2626.1
2018-Jun-10 13:30N 37°56' E 023°37'0 0.0
2018-Jun-10 13:00N 37°56' E 023°37'1122.9
2018-Jun-10 12:31N 37°45' E 023°35'2423.4
2018-Jun-10 11:29N 37°22' E 023°28'3 1.5
2018-Jun-10 09:13N 37°21' E 023°25'3 7.9
2018-Jun-10 08:48N 37°22' E 023°28'1123.0
2018-Jun-10 08:20N 37°32' E 023°34'823.7
2018-Jun-10 08:01N 37°39' E 023°34'1223.6
2018-Jun-10 07:30N 37°51' E 023°34'713.5
2018-Jun-10 07:00N 37°57' E 023°39'2 3.1
2018-Jun-10 06:31N 37°56' E 023°37'918.9
2018-Jun-10 06:01N 37°47' E 023°35'1223.5
2018-Jun-10 05:30N 37°36' E 023°28'611.4
2018-Jun-10 04:56N 37°30' E 023°27'815.7
2018-Jun-10 04:25N 37°22' E 023°28'4 0.5
2018-Jun-09 18:42N 37°22' E 023°23'912.0
2018-Jun-09 17:57N 37°29' E 023°31'511.1
2018-Jun-09 17:31N 37°31' E 023°25'1325.0
2018-Jun-09 17:01N 37°42' E 023°33'1224.8
2018-Jun-09 16:31N 37°54' E 023°36'3 6.1
2018-Jun-09 16:01N 37°57' E 023°39'0 0.0
2018-Jun-09 15:30N 37°57' E 023°39'0 0.0
2018-Jun-09 14:31N 37°57' E 023°39'0 0.0
2018-Jun-09 14:00N 37°57' E 023°39'713.4
2018-Jun-09 13:31N 37°50' E 023°36'1426.1
2018-Jun-09 12:58N 37°37' E 023°29'812.3
2018-Jun-09 12:21N 37°30' E 023°28'618.1
2018-Jun-09 12:00N 37°24' E 023°30'6 2.3
2018-Jun-09 09:29N 37°21' E 023°25'814.1
2018-Jun-09 08:54N 37°26' E 023°33'612.0
2018-Jun-09 08:24N 37°30' E 023°27'717.8
2018-Jun-09 08:00N 37°37' E 023°29'1724.0
2018-Jun-09 07:18N 37°53' E 023°36'414.5
2018-Jun-09 07:00N 37°57' E 023°39'0 0.0
2018-Jun-09 06:30N 37°57' E 023°39'815.1
2018-Jun-09 06:00N 37°49' E 023°35'1425.1
2018-Jun-09 05:27N 37°37' E 023°29'713.6
2018-Jun-09 04:56N 37°30' E 023°27'715.5
2018-Jun-09 04:29N 37°23' E 023°30'5 0.6
2018-Jun-08 20:21N 37°21' E 023°25'411.3
2018-Jun-08 20:00N 37°22' E 023°29'815.2
2018-Jun-08 19:30N 37°30' E 023°27'612.4
2018-Jun-08 19:00N 37°36' E 023°29'1325.7
2018-Jun-08 18:31N 37°48' E 023°35'918.9
2018-Jun-08 18:00N 37°57' E 023°39'0 0.3
2018-Jun-08 17:30N 37°57' E 023°38'1121.7
2018-Jun-08 17:01N 37°46' E 023°35'1326.3
2018-Jun-08 16:30N 37°34' E 023°27'510.6
2018-Jun-08 16:00N 37°29' E 023°29'  

Dump ship's entire track history